Pagina principale
METAR-TAF:

METAR-TAF

Aeroporti :

Odessa, Ucraina

latitudine: 46-26N, longitudine: 030-46E, altezza: 42 m

Osservazione

Il bollettino è stato emesso 8 minuti fa, alle 17:30 UTC
Vento 4 kt da sud
Temperature 23°C
Umidità 57%
Pressione 1014 hPa
Visibilità 10 km o più
nessuna nube inferiore a 1500 m e nessun cumulonembo

METAR: UKOO 141730Z 17002MPS CAVOK 23/14 Q1014 R16/090060 NOSIG

Ora: 20:38 (17:38 UTC)

Previsione

Il bollettino è stato emesso 31 minuti fa, alle 17:07 UTC
Previsione valida dal 14 alle 18 UTC al 15 alle 18 UTC
Vento 6 kt da ovest/sud-ovest
Visibilità: 6000 m
Temporaneamente
dal 14 alle 18 UTC al 14 alle 24 UTC
Visibilità: 2100 m
polvere diffusa
Evoluzione graduale
dal 15 alle 00 UTC al 15 alle 01 UTC
Vento 6 kt da nord-est
Evoluzione graduale
dal 15 alle 08 UTC al 15 alle 09 UTC
Vento 6 kt da sud

TAF: UKOO 141707Z 1418/1518 24003MPS 6000 NSC TX31/1512Z TN17/1502Z TEMPO 1418/1424 2100 DU BECMG 1500/1501 05003MPS BECMG 1508/1509 17003MPS

Osservazioni e previsioni meteorologiche di più di 4000 aeroporti (messaggi METAR e TAF).

Le stazioni disponibili sono rappresentate dai dischi gialli e rossi sulla carta.

Puntare il mouse per vedere il nome della stazione.

Clicca sopra per visualizzare le osservazioni e previsioni meteorologiche.

Per cambiare la mappa : fare clic sui pulsanti verdi con una croce nera per ingrandire, il pulsante verde con un trattino per diminuire, o sulla freccia verde per le mappe adiacenti.


METAR-TAF: